createdAt,value
2017-10-26T00:03:03.392Z,77.99
2017-10-26T00:08:06.066Z,78.02
2017-10-26T00:13:08.012Z,77.68
2017-10-26T00:18:09.961Z,77.55
2017-10-26T00:23:11.950Z,77.65
2017-10-26T00:28:14.162Z,77.44
2017-10-26T00:33:16.291Z,77.42
2017-10-26T00:38:18.655Z,77.16
2017-10-26T00:43:20.995Z,76.79
2017-10-26T00:48:23.222Z,76.60
2017-10-26T00:53:25.388Z,77.04
2017-10-26T00:58:29.881Z,76.52
2017-10-26T01:03:32.205Z,76.27
2017-10-26T01:08:35.516Z,76.41
2017-10-26T01:13:37.998Z,76.48
2017-10-26T01:18:40.319Z,76.61
2017-10-26T01:23:42.900Z,76.89
2017-10-26T01:28:45.255Z,76.88
2017-10-26T01:33:48.556Z,76.81
2017-10-26T01:38:51.839Z,77.04
2017-10-26T01:43:55.479Z,77.08
2017-10-26T01:48:57.831Z,76.98
2017-10-26T01:54:02.822Z,76.89
2017-10-26T01:59:05.037Z,76.83
2017-10-26T02:04:07.160Z,76.83
2017-10-26T02:09:09.399Z,76.83
2017-10-26T02:14:11.633Z,76.78
2017-10-26T02:19:13.873Z,76.89
2017-10-26T02:24:16.112Z,76.79
2017-10-26T02:35:06.082Z,76.96
2017-10-26T02:40:08.920Z,76.99
2017-10-26T02:45:10.983Z,77.03
2017-10-26T02:50:13.877Z,77.02
2017-10-26T02:55:16.331Z,77.04
2017-10-26T03:00:18.436Z,76.79
2017-10-26T03:05:20.653Z,76.60
2017-10-26T03:10:22.773Z,76.52
2017-10-26T03:15:25.697Z,76.43
2017-10-26T03:20:28.018Z,76.43
2017-10-26T03:25:30.093Z,76.60
2017-10-26T03:30:32.278Z,76.84
2017-10-26T03:35:34.231Z,77.27
2017-10-26T03:40:36.128Z,77.37
2017-10-26T03:45:38.051Z,77.40
2017-10-26T03:50:39.979Z,77.45
2017-10-26T03:55:42.659Z,77.51
2017-10-26T04:00:44.627Z,77.62
2017-10-26T04:05:46.532Z,77.80
2017-10-26T04:10:48.416Z,77.74
2017-10-26T04:15:51.068Z,77.71
2017-10-26T04:20:53.071Z,77.91
2017-10-26T04:25:55.130Z,77.96
2017-10-26T04:30:57.250Z,78.05
2017-10-26T04:36:00.140Z,78.10
2017-10-26T04:41:02.145Z,78.04
2017-10-26T04:46:04.052Z,78.09
2017-10-26T04:51:05.980Z,78.14
2017-10-26T04:56:08.636Z,78.07
2017-10-26T05:01:10.542Z,78.03
2017-10-26T05:06:13.656Z,78.09
2017-10-26T05:11:15.980Z,77.93
2017-10-26T05:16:17.909Z,78.30
2017-10-26T05:21:19.856Z,78.31
2017-10-26T05:26:21.767Z,78.55
2017-10-26T05:31:23.757Z,78.16
2017-10-26T05:36:25.772Z,78.27
2017-10-26T05:41:27.735Z,78.03
2017-10-26T05:46:30.122Z,78.12
2017-10-26T05:51:32.069Z,78.60
2017-10-26T05:56:34.085Z,78.15
2017-10-26T06:01:36.089Z,78.15
2017-10-26T06:06:38.156Z,78.10
2017-10-26T06:11:40.180Z,77.96
2017-10-26T06:16:42.152Z,77.85
2017-10-26T06:21:44.055Z,77.89
2017-10-26T06:26:45.982Z,77.59
2017-10-26T06:31:48.204Z,77.80
2017-10-26T06:36:50.163Z,77.78
2017-10-26T06:41:52.092Z,77.63
2017-10-26T06:46:54.208Z,77.76
2017-10-26T06:51:56.139Z,78.16
2017-10-26T06:57:05.318Z,77.77
2017-10-26T07:02:13.337Z,78.22
2017-10-26T07:07:21.691Z,78.63
2017-10-26T07:12:28.890Z,78.27
2017-10-26T07:17:38.071Z,78.44
2017-10-26T07:22:44.859Z,78.25
2017-10-26T07:27:47.061Z,78.16
2017-10-26T07:32:51.163Z,78.09
2017-10-26T07:37:55.928Z,77.87
2017-10-26T07:42:57.982Z,77.69
2017-10-26T07:48:00.426Z,77.11
2017-10-26T07:53:04.254Z,76.80
2017-10-26T07:58:06.304Z,76.23
2017-10-26T08:03:08.379Z,75.80
2017-10-26T08:08:11.820Z,75.67
2017-10-26T08:13:17.347Z,75.44
2017-10-26T08:18:19.331Z,75.01
2017-10-26T08:23:21.359Z,75.18
2017-10-26T08:28:30.289Z,74.92
2017-10-26T08:33:32.406Z,75.18
2017-10-26T08:38:34.334Z,75.28
2017-10-26T08:43:38.473Z,75.24
2017-10-26T08:48:40.865Z,74.98
2017-10-26T08:53:43.670Z,74.18
2017-10-26T08:58:47.353Z,74.08
2017-10-26T09:03:52.793Z,73.80
2017-10-26T09:08:54.816Z,73.43
2017-10-26T09:13:57.672Z,73.49
2017-10-26T09:19:05.279Z,72.98
2017-10-26T09:24:08.088Z,72.79
2017-10-26T09:29:10.095Z,71.86
2017-10-26T09:34:12.113Z,71.72
2017-10-26T09:39:14.900Z,71.84
2017-10-26T09:44:17.736Z,71.99
2017-10-26T09:49:19.855Z,71.42
2017-10-26T09:54:21.868Z,70.80
2017-10-26T09:59:23.896Z,71.08
2017-10-26T10:04:26.642Z,71.17
2017-10-26T10:09:28.734Z,70.88
2017-10-26T10:14:30.781Z,70.80
2017-10-26T10:19:32.940Z,70.91
2017-10-26T10:24:35.726Z,71.47
2017-10-26T10:29:38.492Z,71.30
2017-10-26T10:34:40.508Z,70.58
2017-10-26T10:39:42.536Z,70.03
2017-10-26T10:44:44.599Z,68.74
2017-10-26T10:49:47.390Z,68.32
2017-10-26T10:54:49.419Z,69.30
2017-10-26T10:59:58.247Z,68.58
2017-10-26T11:05:03.841Z,68.62
2017-10-26T11:10:11.308Z,68.41
2017-10-26T11:15:15.358Z,68.71
2017-10-26T11:20:18.011Z,68.47
2017-10-26T11:25:20.028Z,67.56
2017-10-26T11:30:22.036Z,67.63
2017-10-26T11:35:24.068Z,67.62
2017-10-26T11:40:26.132Z,67.55
2017-10-26T11:45:28.157Z,67.17
2017-10-26T11:50:30.245Z,66.97
2017-10-26T11:55:32.271Z,67.03
2017-10-26T12:00:34.333Z,67.08
2017-10-26T12:05:37.113Z,67.29
2017-10-26T12:10:39.132Z,66.92
2017-10-26T12:15:41.177Z,67.31
2017-10-26T12:20:43.211Z,67.33
2017-10-26T12:25:45.233Z,65.91
2017-10-26T12:30:47.313Z,65.54
2017-10-26T12:35:49.416Z,63.09
2017-10-26T12:40:51.519Z,62.48
2017-10-26T12:45:53.589Z,62.51
2017-10-26T12:50:55.617Z,62.69
2017-10-26T12:55:58.386Z,62.04
2017-10-26T13:01:00.436Z,62.32
2017-10-26T13:06:03.249Z,62.75
2017-10-26T13:11:05.316Z,63.19
2017-10-26T13:16:07.396Z,63.48
2017-10-26T13:21:09.424Z,62.43
2017-10-26T13:26:11.455Z,62.19
2017-10-26T13:31:13.418Z,62.61
2017-10-26T13:36:15.364Z,61.77
2017-10-26T13:41:17.302Z,61.59
2017-10-26T13:46:20.024Z,61.36
2017-10-26T13:51:23.095Z,61.88
2017-10-26T13:56:25.127Z,62.35
2017-10-26T14:01:27.198Z,61.89
2017-10-26T14:06:29.163Z,61.94
2017-10-26T14:11:31.178Z,61.44
2017-10-26T14:16:33.865Z,61.56
2017-10-26T14:21:35.811Z,61.33
2017-10-26T14:26:38.468Z,62.13
2017-10-26T14:31:40.373Z,61.81
2017-10-26T14:36:42.567Z,61.25
2017-10-26T14:41:44.473Z,62.13
2017-10-26T14:46:46.428Z,62.13
2017-10-26T14:51:49.115Z,62.07
2017-10-26T14:56:51.002Z,62.52
2017-10-26T15:01:52.940Z,62.40
2017-10-26T15:06:55.103Z,62.89
2017-10-26T15:11:58.547Z,63.27
2017-10-26T15:17:01.595Z,63.57
2017-10-26T15:22:03.622Z,64.42
2017-10-26T15:27:05.575Z,64.49
2017-10-26T15:32:08.267Z,64.59
2017-10-26T15:37:10.205Z,65.02
2017-10-26T15:42:12.260Z,65.27
2017-10-26T15:47:14.227Z,65.39
2017-10-26T15:52:16.142Z,65.24
2017-10-26T15:57:18.048Z,64.99
2017-10-26T16:02:19.960Z,64.82
2017-10-26T16:07:22.039Z,64.84
2017-10-26T16:12:25.401Z,64.85
2017-10-26T16:17:27.411Z,64.95
2017-10-26T16:22:29.365Z,65.09
2017-10-26T16:27:32.049Z,65.62
2017-10-26T16:32:33.975Z,66.20
2017-10-26T16:37:36.647Z,66.65
2017-10-26T16:42:38.678Z,66.94
2017-10-26T16:47:40.670Z,66.99
2017-10-26T16:52:42.634Z,66.90
2017-10-26T16:57:45.359Z,66.98
2017-10-26T17:02:47.299Z,66.82
2017-10-26T17:07:49.276Z,66.90
2017-10-26T17:12:51.258Z,67.35
2017-10-26T17:17:53.963Z,68.46
2017-10-26T17:22:55.973Z,69.04
2017-10-26T17:27:58.842Z,69.06
2017-10-26T17:33:01.905Z,68.97
2017-10-26T17:38:03.923Z,68.53
2017-10-26T17:43:11.621Z,68.27
2017-10-26T17:48:13.924Z,68.36
2017-10-26T17:53:21.988Z,68.08
2017-10-26T17:58:27.200Z,68.00
2017-10-26T18:03:29.693Z,68.10
2017-10-26T18:08:33.712Z,68.18
2017-10-26T18:13:37.377Z,68.32
2017-10-26T18:18:39.333Z,68.44
2017-10-26T18:23:41.320Z,68.53
2017-10-26T18:28:47.369Z,68.25
2017-10-26T18:33:49.335Z,68.28
2017-10-26T18:38:51.418Z,67.76
2017-10-26T18:43:54.301Z,67.61
2017-10-26T18:48:56.521Z,67.62
2017-10-26T18:53:58.492Z,67.73
2017-10-26T18:59:01.410Z,67.53
2017-10-26T19:04:03.619Z,67.66
2017-10-26T19:09:05.533Z,66.91
2017-10-26T19:14:08.205Z,67.03
2017-10-26T19:19:10.151Z,67.17
2017-10-26T19:24:12.239Z,67.43
2017-10-26T19:29:14.295Z,67.37
2017-10-26T19:34:16.275Z,67.04
2017-10-26T19:39:18.230Z,68.57
2017-10-26T19:44:24.305Z,70.00
2017-10-26T19:49:26.533Z,70.44
2017-10-26T19:54:29.338Z,70.17
2017-10-26T19:59:32.090Z,70.66
2017-10-26T20:04:34.800Z,70.96
2017-10-26T20:09:37.536Z,72.16
2017-10-26T20:14:39.509Z,72.97
2017-10-26T20:19:41.448Z,73.33
2017-10-26T20:24:43.361Z,73.34
2017-10-26T20:29:45.289Z,73.02
2017-10-26T20:34:47.984Z,73.21
2017-10-26T20:39:49.971Z,73.22
2017-10-26T20:44:51.906Z,73.29
2017-10-26T20:50:00.054Z,73.26
2017-10-26T20:55:07.894Z,73.16
2017-10-26T21:00:15.910Z,73.59
2017-10-26T21:05:23.806Z,73.40
2017-10-26T21:10:32.577Z,73.49
2017-10-26T21:15:35.234Z,73.33
2017-10-26T21:20:37.151Z,72.80
2017-10-26T21:25:39.098Z,72.49
2017-10-26T21:30:41.055Z,72.47
2017-10-26T21:35:42.955Z,72.25
2017-10-26T21:40:44.954Z,71.92
2017-10-26T21:45:46.953Z,72.23
2017-10-26T21:50:48.899Z,72.37
2017-10-26T21:55:50.818Z,72.28
2017-10-26T22:00:52.760Z,72.17
2017-10-26T22:05:54.725Z,72.18
2017-10-26T22:10:56.669Z,72.15
2017-10-26T22:15:58.666Z,72.32
2017-10-26T22:21:00.596Z,72.56
2017-10-26T22:26:02.562Z,72.35
2017-10-26T22:31:04.510Z,72.11
2017-10-26T22:36:06.448Z,72.44
2017-10-26T22:41:08.420Z,72.60
2017-10-26T22:46:10.347Z,72.65
2017-10-26T22:51:12.304Z,73.09
2017-10-26T22:56:14.256Z,73.30
2017-10-26T23:01:16.225Z,73.42
2017-10-26T23:06:18.141Z,73.54
2017-10-26T23:11:20.102Z,73.58
2017-10-26T23:16:22.083Z,73.57
2017-10-26T23:21:24.092Z,73.45
2017-10-26T23:26:26.792Z,73.47
2017-10-26T23:31:28.674Z,72.93
2017-10-26T23:36:30.600Z,72.78
2017-10-26T23:41:32.534Z,72.74
2017-10-26T23:46:34.476Z,72.63
2017-10-26T23:51:36.474Z,72.62
2017-10-26T23:56:38.410Z,72.77
